AVA225 SAVC-SAVE
Flight info
| Callsign | AVA225 |
|---|---|
| Flight time | 0h 41m |
| Altitude | 32000 |
| Route | EGEGU2G EGEGU DCT IROLA DCT ASUTO DCT TEPUB DCT GIMBI |
| Aircraft | A320/M-SDE3FGHIRWY/LB1 |
Departure
| Time | 2026-05-09 18:11 |
|---|---|
| Airport | General Enrique Mosconi International Airport (SAVC) |
Arrival
| Time | 2026-05-09 18:52 |
|---|---|
| Airport | Esquel Brigadier Antonio Parodi International Airport (SAVE) |
| Time | Latitude | Longitude | Altitude | Speed | Heading |
|---|---|---|---|---|---|
| 2026-05-09 17:33 | -45.78949 | -67.46821 | 196 ft | 0 kts | 221° |
| 2026-05-09 18:01 | -45.78941 | -67.46812 | 196 ft | 4 kts | 217° |
| 2026-05-09 18:01 | -45.78919 | -67.46790 | 201 ft | 4 kts | 219° |
| 2026-05-09 18:02 | -45.78906 | -67.46767 | 207 ft | 1 kts | 261° |
| 2026-05-09 18:02 | -45.78906 | -67.46766 | 196 ft | 0 kts | 261° |
| 2026-05-09 18:06 | -45.78902 | -67.46781 | 196 ft | 4 kts | 298° |
| 2026-05-09 18:06 | -45.78863 | -67.46797 | 196 ft | 9 kts | 354° |
| 2026-05-09 18:06 | -45.78785 | -67.46800 | 196 ft | 14 kts | 12° |
| 2026-05-09 18:07 | -45.78739 | -67.46666 | 205 ft | 18 kts | 78° |
| 2026-05-09 18:07 | -45.78714 | -67.46477 | 196 ft | 21 kts | 79° |
| 2026-05-09 18:07 | -45.78683 | -67.46255 | 196 ft | 24 kts | 79° |
| 2026-05-09 18:07 | -45.78651 | -67.46004 | 209 ft | 26 kts | 78° |
| 2026-05-09 18:08 | -45.78617 | -67.45740 | 206 ft | 28 kts | 79° |
| 2026-05-09 18:08 | -45.78581 | -67.45465 | 196 ft | 29 kts | 79° |
| 2026-05-09 18:08 | -45.78543 | -67.45180 | 198 ft | 30 kts | 79° |
| 2026-05-09 18:08 | -45.78507 | -67.44919 | 204 ft | 24 kts | 71° |
| 2026-05-09 18:09 | -45.78388 | -67.44843 | 196 ft | 14 kts | 20° |
| 2026-05-09 18:09 | -45.78310 | -67.44798 | 198 ft | 7 kts | 19° |
| 2026-05-09 18:09 | -45.78299 | -67.44824 | 207 ft | 2 kts | 282° |
| 2026-05-09 18:09 | -45.78299 | -67.44835 | 199 ft | 0 kts | 269° |
| 2026-05-09 18:10 | -45.78303 | -67.44889 | 198 ft | 24 kts | 261° |
| 2026-05-09 18:10 | -45.78432 | -67.45859 | 198 ft | 120 kts | 259° |
| 2026-05-09 18:10 | -45.78616 | -67.47255 | 390 ft | 152 kts | 258° |
| 2026-05-09 18:11 | -45.78844 | -67.48697 | 1137 ft | 149 kts | 247° |
| 2026-05-09 18:11 | -45.79304 | -67.50080 | 1673 ft | 164 kts | 244° |
| 2026-05-09 18:11 | -45.79834 | -67.51631 | 2042 ft | 185 kts | 245° |
| 2026-05-09 18:11 | -45.80429 | -67.53389 | 2345 ft | 208 kts | 245° |
| 2026-05-09 18:12 | -45.81074 | -67.55293 | 3027 ft | 216 kts | 245° |
| 2026-05-09 18:12 | -45.81734 | -67.57245 | 3813 ft | 220 kts | 244° |
| 2026-05-09 18:12 | -45.82400 | -67.59220 | 4671 ft | 221 kts | 244° |
| 2026-05-09 18:12 | -45.83049 | -67.61205 | 5558 ft | 221 kts | 247° |
| 2026-05-09 18:13 | -45.83464 | -67.63322 | 6419 ft | 224 kts | 262° |
| 2026-05-09 18:13 | -45.83315 | -67.65555 | 7240 ft | 230 kts | 285° |
| 2026-05-09 18:13 | -45.82446 | -67.67530 | 8008 ft | 244 kts | 313° |
| 2026-05-09 18:13 | -45.81006 | -67.68898 | 8765 ft | 253 kts | 325° |
| 2026-05-09 18:14 | -45.79461 | -67.70148 | 9534 ft | 258 kts | 326° |
| 2026-05-09 18:14 | -45.77887 | -67.71413 | 10328 ft | 264 kts | 326° |
| 2026-05-09 18:14 | -45.76159 | -67.72351 | 11134 ft | 272 kts | 342° |
| 2026-05-09 18:14 | -45.74297 | -67.72931 | 11889 ft | 276 kts | 342° |
| 2026-05-09 18:15 | -45.72414 | -67.73528 | 12629 ft | 279 kts | 340° |
| 2026-05-09 18:15 | -45.70578 | -67.74457 | 13083 ft | 289 kts | 330° |
| 2026-05-09 18:15 | -45.68662 | -67.75637 | 13321 ft | 312 kts | 330° |
| 2026-05-09 18:15 | -45.66605 | -67.76926 | 13509 ft | 335 kts | 330° |
| 2026-05-09 18:16 | -45.64399 | -67.78305 | 13670 ft | 358 kts | 330° |
| 2026-05-09 18:16 | -45.62048 | -67.79761 | 13791 ft | 380 kts | 331° |
| 2026-05-09 18:16 | -45.59573 | -67.81269 | 14162 ft | 393 kts | 332° |
| 2026-05-09 18:16 | -45.57041 | -67.82797 | 14721 ft | 399 kts | 332° |
| 2026-05-09 18:17 | -45.54472 | -67.84341 | 15273 ft | 404 kts | 332° |
| 2026-05-09 18:17 | -45.51867 | -67.85908 | 15814 ft | 410 kts | 331° |
| 2026-05-09 18:17 | -45.49230 | -67.87502 | 16372 ft | 415 kts | 331° |
| 2026-05-09 18:17 | -45.46563 | -67.89121 | 16887 ft | 420 kts | 331° |
| 2026-05-09 18:18 | -45.43869 | -67.90756 | 17414 ft | 424 kts | 330° |
| 2026-05-09 18:18 | -45.41140 | -67.92411 | 17881 ft | 430 kts | 330° |
| 2026-05-09 18:18 | -45.38380 | -67.94084 | 18351 ft | 435 kts | 330° |
| 2026-05-09 18:18 | -45.35590 | -67.95771 | 18860 ft | 439 kts | 331° |
| 2026-05-09 18:19 | -45.32666 | -67.97141 | 19355 ft | 449 kts | 341° |
| 2026-05-09 18:19 | -45.26485 | -67.98861 | 20376 ft | 457 kts | 344° |
| 2026-05-09 18:19 | -45.23361 | -67.99717 | 20850 ft | 459 kts | 343° |
| 2026-05-09 18:20 | -45.20221 | -68.00585 | 21325 ft | 462 kts | 343° |
| 2026-05-09 18:20 | -45.17070 | -68.01460 | 21812 ft | 464 kts | 343° |
| 2026-05-09 18:20 | -45.13904 | -68.02338 | 22277 ft | 466 kts | 343° |
| 2026-05-09 18:20 | -45.10724 | -68.03216 | 22717 ft | 468 kts | 343° |
| 2026-05-09 18:21 | -45.08197 | -68.03910 | 23051 ft | 470 kts | 343° |
| 2026-05-09 18:21 | -45.04990 | -68.04788 | 23437 ft | 473 kts | 343° |
| 2026-05-09 18:21 | -45.01786 | -68.05775 | 23805 ft | 471 kts | 338° |
| 2026-05-09 18:21 | -44.98726 | -68.07327 | 24182 ft | 466 kts | 329° |
| 2026-05-09 18:22 | -44.95887 | -68.09451 | 24529 ft | 461 kts | 321° |
| 2026-05-09 18:22 | -44.93159 | -68.11856 | 24872 ft | 464 kts | 321° |
| 2026-05-09 18:22 | -44.90413 | -68.14266 | 25194 ft | 468 kts | 321° |
| 2026-05-09 18:22 | -44.87643 | -68.16685 | 25521 ft | 471 kts | 321° |
| 2026-05-09 18:23 | -44.84850 | -68.19115 | 25844 ft | 474 kts | 320° |
| 2026-05-09 18:23 | -44.82040 | -68.21552 | 26151 ft | 477 kts | 320° |
| 2026-05-09 18:23 | -44.79211 | -68.24003 | 26432 ft | 480 kts | 320° |
| 2026-05-09 18:23 | -44.76364 | -68.26468 | 26715 ft | 483 kts | 320° |
| 2026-05-09 18:24 | -44.73497 | -68.28945 | 26989 ft | 486 kts | 320° |
| 2026-05-09 18:24 | -44.70618 | -68.31435 | 27272 ft | 489 kts | 320° |
| 2026-05-09 18:24 | -44.67714 | -68.33941 | 27553 ft | 493 kts | 320° |
| 2026-05-09 18:25 | -44.61859 | -68.38986 | 28115 ft | 497 kts | 320° |
| 2026-05-09 18:25 | -44.58912 | -68.41523 | 28392 ft | 500 kts | 320° |
| 2026-05-09 18:25 | -44.55950 | -68.44063 | 28768 ft | 499 kts | 320° |
| 2026-05-09 18:25 | -44.52986 | -68.46593 | 29122 ft | 500 kts | 320° |
| 2026-05-09 18:26 | -44.50027 | -68.49118 | 29447 ft | 499 kts | 319° |
| 2026-05-09 18:26 | -44.47068 | -68.51648 | 29755 ft | 500 kts | 319° |
| 2026-05-09 18:26 | -44.44108 | -68.54181 | 30049 ft | 500 kts | 319° |
| 2026-05-09 18:26 | -44.41142 | -68.56721 | 30382 ft | 501 kts | 319° |
| 2026-05-09 18:27 | -44.38172 | -68.59261 | 30720 ft | 501 kts | 319° |
| 2026-05-09 18:27 | -44.36194 | -68.60948 | 30966 ft | 501 kts | 319° |
| 2026-05-09 18:27 | -44.32232 | -68.64315 | 31413 ft | 501 kts | 319° |
| 2026-05-09 18:27 | -44.29264 | -68.66835 | 31753 ft | 501 kts | 319° |
| 2026-05-09 18:28 | -44.26291 | -68.69350 | 32097 ft | 501 kts | 319° |
| 2026-05-09 18:28 | -44.23323 | -68.71859 | 32210 ft | 501 kts | 319° |
| 2026-05-09 18:28 | -44.20347 | -68.74378 | 32231 ft | 502 kts | 319° |
| 2026-05-09 18:29 | -44.14396 | -68.79426 | 32228 ft | 502 kts | 319° |
| 2026-05-09 18:29 | -44.08437 | -68.84456 | 32228 ft | 502 kts | 319° |
| 2026-05-09 18:30 | -44.02469 | -68.89472 | 32229 ft | 502 kts | 319° |
| 2026-05-09 18:30 | -43.96509 | -68.94474 | 32235 ft | 502 kts | 320° |
| 2026-05-09 18:31 | -43.90545 | -68.99484 | 32216 ft | 503 kts | 320° |
| 2026-05-09 18:31 | -43.84555 | -69.04481 | 32216 ft | 504 kts | 320° |
| 2026-05-09 18:32 | -43.78543 | -69.09473 | 32217 ft | 505 kts | 320° |
| 2026-05-09 18:32 | -43.72527 | -69.14469 | 32225 ft | 505 kts | 320° |
| 2026-05-09 18:33 | -43.66534 | -69.19453 | 32228 ft | 505 kts | 320° |
| 2026-05-09 18:33 | -43.60518 | -69.24430 | 32232 ft | 505 kts | 320° |
| 2026-05-09 18:34 | -43.54491 | -69.29389 | 32239 ft | 506 kts | 320° |
| 2026-05-09 18:34 | -43.48462 | -69.34355 | 32248 ft | 506 kts | 320° |
| 2026-05-09 18:35 | -43.42434 | -69.39316 | 32246 ft | 506 kts | 321° |
| 2026-05-09 18:35 | -43.36395 | -69.44264 | 32248 ft | 506 kts | 321° |
| 2026-05-09 18:36 | -43.30354 | -69.49195 | 32250 ft | 506 kts | 321° |
| 2026-05-09 18:36 | -43.24309 | -69.54129 | 31957 ft | 507 kts | 321° |
| 2026-05-09 18:36 | -43.21284 | -69.56591 | 31494 ft | 507 kts | 321° |
| 2026-05-09 18:37 | -43.18246 | -69.59061 | 30183 ft | 510 kts | 321° |
| 2026-05-09 18:37 | -43.15213 | -69.61520 | 28945 ft | 504 kts | 321° |
| 2026-05-09 18:37 | -43.12213 | -69.63946 | 27718 ft | 502 kts | 322° |
| 2026-05-09 18:37 | -43.09189 | -69.66404 | 26394 ft | 510 kts | 322° |
| 2026-05-09 18:38 | -43.06235 | -69.68833 | 25147 ft | 514 kts | 321° |
| 2026-05-09 18:38 | -43.03456 | -69.71780 | 24239 ft | 500 kts | 310° |
| 2026-05-09 18:38 | -43.01156 | -69.75237 | 23329 ft | 486 kts | 300° |
| 2026-05-09 18:40 | -42.96432 | -70.02986 | 18382 ft | 417 kts | 270° |
| 2026-05-09 18:40 | -42.96149 | -70.06891 | 17758 ft | 411 kts | 270° |
| 2026-05-09 18:40 | -42.95869 | -70.10741 | 17166 ft | 405 kts | 270° |
| 2026-05-09 18:41 | -42.95593 | -70.14530 | 16582 ft | 399 kts | 270° |
| 2026-05-09 18:41 | -42.95323 | -70.18263 | 16047 ft | 393 kts | 270° |
| 2026-05-09 18:41 | -42.95060 | -70.21937 | 15510 ft | 386 kts | 270° |
| 2026-05-09 18:41 | -42.94799 | -70.25554 | 14997 ft | 381 kts | 270° |
| 2026-05-09 18:42 | -42.94538 | -70.29119 | 14481 ft | 376 kts | 270° |
| 2026-05-09 18:42 | -42.94278 | -70.32649 | 13949 ft | 373 kts | 271° |
| 2026-05-09 18:42 | -42.94019 | -70.36140 | 13395 ft | 369 kts | 271° |
| 2026-05-09 18:42 | -42.93760 | -70.39601 | 12848 ft | 366 kts | 272° |
| 2026-05-09 18:43 | -42.93249 | -70.43003 | 12234 ft | 370 kts | 282° |
| 2026-05-09 18:43 | -42.92281 | -70.46267 | 11579 ft | 374 kts | 290° |
| 2026-05-09 18:43 | -42.91185 | -70.49377 | 11328 ft | 350 kts | 291° |
| 2026-05-09 18:43 | -42.90172 | -70.52236 | 11199 ft | 322 kts | 290° |
| 2026-05-09 18:44 | -42.89239 | -70.54881 | 10991 ft | 300 kts | 290° |
| 2026-05-09 18:44 | -42.88356 | -70.57408 | 10524 ft | 291 kts | 290° |
| 2026-05-09 18:44 | -42.87499 | -70.59888 | 10274 ft | 288 kts | 290° |
| 2026-05-09 18:44 | -42.86649 | -70.62347 | 10027 ft | 287 kts | 291° |
| 2026-05-09 18:45 | -42.85800 | -70.64789 | 9858 ft | 285 kts | 291° |
| 2026-05-09 18:45 | -42.84950 | -70.67222 | 9738 ft | 284 kts | 291° |
| 2026-05-09 18:45 | -42.84222 | -70.69301 | 9610 ft | 284 kts | 291° |
| 2026-05-09 18:45 | -42.83386 | -70.71684 | 9496 ft | 274 kts | 292° |
| 2026-05-09 18:46 | -42.82591 | -70.73947 | 9363 ft | 256 kts | 291° |
| 2026-05-09 18:46 | -42.81847 | -70.76056 | 9242 ft | 242 kts | 291° |
| 2026-05-09 18:46 | -42.81137 | -70.78078 | 9101 ft | 234 kts | 291° |
| 2026-05-09 18:46 | -42.80446 | -70.80048 | 8965 ft | 228 kts | 292° |
| 2026-05-09 18:47 | -42.79771 | -70.81966 | 8826 ft | 222 kts | 291° |
| 2026-05-09 18:47 | -42.79127 | -70.83824 | 8673 ft | 212 kts | 288° |
| 2026-05-09 18:47 | -42.78741 | -70.85742 | 8205 ft | 212 kts | 274° |
| 2026-05-09 18:47 | -42.78743 | -70.87737 | 7817 ft | 212 kts | 260° |
| 2026-05-09 18:48 | -42.79126 | -70.89667 | 7501 ft | 213 kts | 245° |
| 2026-05-09 18:48 | -42.79835 | -70.91433 | 7216 ft | 214 kts | 238° |
| 2026-05-09 18:48 | -42.80575 | -70.93012 | 6704 ft | 217 kts | 237° |
| 2026-05-09 18:48 | -42.81387 | -70.94704 | 6398 ft | 208 kts | 237° |
| 2026-05-09 18:49 | -42.82153 | -70.96302 | 6247 ft | 200 kts | 238° |
| 2026-05-09 18:49 | -42.82914 | -70.97893 | 5782 ft | 200 kts | 238° |
| 2026-05-09 18:49 | -42.83660 | -70.99451 | 5312 ft | 194 kts | 238° |
| 2026-05-09 18:49 | -42.84390 | -71.00977 | 4838 ft | 191 kts | 238° |
| 2026-05-09 18:50 | -42.85109 | -71.02483 | 4359 ft | 190 kts | 236° |
| 2026-05-09 18:50 | -42.85810 | -71.03954 | 4051 ft | 180 kts | 236° |
| 2026-05-09 18:50 | -42.86473 | -71.05342 | 3795 ft | 170 kts | 236° |
| 2026-05-09 18:50 | -42.87099 | -71.06653 | 3561 ft | 161 kts | 237° |
| 2026-05-09 18:51 | -42.87282 | -71.07037 | 3502 ft | 159 kts | 238° |
| 2026-05-09 18:51 | -42.87874 | -71.08282 | 3294 ft | 156 kts | 237° |
| 2026-05-09 18:51 | -42.88458 | -71.09508 | 3091 ft | 153 kts | 238° |
| 2026-05-09 18:51 | -42.89035 | -71.10721 | 2890 ft | 152 kts | 238° |
| 2026-05-09 18:52 | -42.89605 | -71.11924 | 2736 ft | 151 kts | 238° |
| 2026-05-09 18:52 | -42.90153 | -71.13078 | 2643 ft | 139 kts | 238° |
| 2026-05-09 18:52 | -42.90582 | -71.13975 | 2636 ft | 74 kts | 237° |
| 2026-05-09 18:52 | -42.90712 | -71.14275 | 2636 ft | 26 kts | 248° |
| 2026-05-09 18:53 | -42.90736 | -71.14413 | 2636 ft | 0 kts | 263° |
| 2026-05-09 18:53 | -42.90737 | -71.14413 | 2636 ft | 0 kts | 263° |
| 2026-05-09 18:53 | -42.90739 | -71.14447 | 2637 ft | 0 kts | 266° |
| 2026-05-09 18:53 | -42.90740 | -71.14470 | 2637 ft | 3 kts | 266° |
| 2026-05-09 18:54 | -42.90741 | -71.14496 | 2637 ft | 4 kts | 265° |
| 2026-05-09 18:54 | -42.90732 | -71.14561 | 2637 ft | 9 kts | 306° |
| 2026-05-09 18:54 | -42.90703 | -71.14601 | 2636 ft | 6 kts | 307° |
| 2026-05-09 18:54 | -42.90697 | -71.14622 | 2636 ft | 1 kts | 286° |
| 2026-05-09 18:55 | -42.90697 | -71.14644 | 2636 ft | 2 kts | 270° |
| 2026-05-09 18:55 | -42.90687 | -71.14658 | 2636 ft | 2 kts | 315° |
| 2026-05-09 18:55 | -42.90679 | -71.14668 | 2636 ft | 1 kts | 327° |
| 2026-05-09 18:55 | -42.90668 | -71.14679 | 2636 ft | 0 kts | 321° |
| 2026-05-09 18:57 | -42.90667 | -71.14680 | 2636 ft | 0 kts | 327° |